Weather History for KK22 - April, 2013

Change the Weather History Date:

Friday, April 12, 2013

  Actual Average (KJKL) Record (KJKL)
Temperature  
Mean Temperature 54 °F 56 °F  
Max Temperature 63 °F 67 °F 83 °F (2014)
Min Temperature 47 °F 46 °F 30 °F (2012)
Degree Days  
Heating Degree Days 10 10  
Month to date heating degree days 136  
Since 1 July heating degree days 3989  
Cooling Degree Days 0 1  
Month to date cooling degree days 12  
Year to date cooling degree days 19  
Growing Degree Days 4 (Base 50)    
Moisture  
Dew Point 44 °F    
Average Humidity 67    
Maximum Humidity 97    
Minimum Humidity 36    
Precipitation  
Precipitation 0.00 in 0.12 in 0.95 in (2011)
Month to date precipitation 1.50  
Year to date precipitation 12.98  
Snow  
Snow 0.00 in 0.10 in 0.00 in (2002)
Month to date snowfall 0.7  
Since 1 July snowfall 23.2  
Snow Depth -    
Sea Level Pressure  
Sea Level Pressure 29.75 in    
Wind  
Wind Speed 9 mph (West)    
Max Wind Speed 26 mph    
Max Gust Speed 34 mph    
Visibility 10 miles    
Events Rain    
T = Trace of Precipitation, MM = Missing Value Source: NWS Daily Summary

Daily Weather History Graph

Daily Weather History Graph

Search for Another Location

Airport or City:

Trip Planner

Search our weather history database for the weather conditions in past years. The results will help you decide how hot, cold, wet, or windy it might be!

Date:

Astronomy

Apr. 12, 2013 Rise Set
Actual Time 6:59 AM EDT 8:03 PM EDT
Civil Twilight 6:32 AM EDT 8:30 PM EDT
Nautical Twilight 6:00 AM EDT 9:02 PM EDT
Astronomical Twilight 5:27 AM EDT 9:36 PM EDT
Moon 8:10 AM EDT (4/12) 10:30 PM EDT (4/12)
Length of Visible Light 13h 58m
Length of Day
13h 04m
Waxing Crescent, 5% of the Moon is Illuminated
Apr 12
Waxing Crescent
Apr 18
First Quarter
Apr 25
Full
May 2
Last Quarter
May 9
New

Hourly Weather History & Observations

Time (EDT) Temp. Dew Point Humidity Pressure Visibility Wind Dir Wind Speed Gust Speed Precip Events Conditions
12:15 AM 57.4 °F 56.7 °F 97% 29.66 in 10.0 mi SE 5.8 mph - N/A   Drizzle
12:35 AM 57.6 °F 56.8 °F 97% 29.64 in 10.0 mi SE 10.4 mph - N/A Rain Light Rain
12:55 AM 57.4 °F 56.7 °F 97% 29.62 in 10.0 mi SE 8.1 mph - N/A Rain Light Rain
1:15 AM 57.7 °F 57.0 °F 97% 29.64 in 10.0 mi South 13.8 mph 20.7 mph N/A Rain Rain
1:35 AM 58.1 °F 56.8 °F 96% 29.62 in 10.0 mi SSE 15.0 mph 21.9 mph N/A Rain Light Rain
1:55 AM 58.3 °F 57.0 °F 96% 29.58 in 10.0 mi SSE 17.3 mph 24.2 mph N/A Rain Light Rain
2:15 AM 59.4 °F 56.8 °F 91% 29.50 in 10.0 mi SE 26.5 mph 34.5 mph N/A Rain Light Rain
2:35 AM 60.8 °F 56.7 °F 86% 29.54 in 10.0 mi South 15.0 mph 24.2 mph N/A   Overcast
2:55 AM 60.3 °F 56.7 °F 88% 29.55 in 10.0 mi WSW 6.9 mph - N/A   Overcast
3:15 AM 60.3 °F 56.7 °F 88% 29.55 in 10.0 mi WSW 4.6 mph - N/A   Overcast
3:35 AM 60.1 °F 57.2 °F 90% 29.55 in 10.0 mi South 3.5 mph - N/A   Overcast
3:55 AM 60.1 °F 57.4 °F 91% 29.55 in 10.0 mi South 3.5 mph - N/A   Overcast
4:15 AM 60.3 °F 57.2 °F 90% 29.55 in 10.0 mi Calm Calm - N/A   Overcast
4:35 AM 59.9 °F 57.2 °F 91% 29.55 in 10.0 mi Calm Calm - N/A   Overcast
4:55 AM 62.2 °F 56.1 °F 80% 29.55 in 10.0 mi SSW 13.8 mph - N/A   Overcast
5:15 AM 61.7 °F 56.8 °F 84% 29.57 in 7.0 mi WSW 9.2 mph 17.3 mph N/A   Unknown
5:35 AM 60.6 °F 57.4 °F 89% 29.59 in 7.0 mi West 10.4 mph 23.0 mph N/A   Unknown
5:55 AM 59.2 °F 56.3 °F 90% 29.61 in 10.0 mi West 9.2 mph 17.3 mph N/A Rain Light Rain
6:15 AM 56.7 °F 53.4 °F 89% 29.64 in 10.0 mi WNW 8.1 mph 20.7 mph N/A   Overcast
6:35 AM 55.8 °F 52.0 °F 87% 29.65 in 10.0 mi WNW 8.1 mph 20.7 mph N/A   Overcast
6:55 AM 54.3 °F 51.8 °F 91% 29.67 in 7.0 mi NW 8.1 mph - N/A   Overcast
7:15 AM 53.2 °F 51.4 °F 94% 29.69 in 4.0 mi WNW 5.8 mph - N/A   Unknown
7:35 AM 53.2 °F 50.9 °F 92% 29.71 in 10.0 mi West 6.9 mph - N/A   Overcast
7:55 AM 52.2 °F 50.5 °F 94% 29.72 in 2.5 mi WNW 6.9 mph - N/A   Unknown
8:15 AM 51.8 °F 50.0 °F 94% 29.73 in 10.0 mi West 15.0 mph 20.7 mph N/A   Overcast
8:35 AM 51.3 °F 49.3 °F 93% 29.74 in 5.0 mi West 11.5 mph 17.3 mph N/A   Overcast
8:55 AM 50.9 °F 48.2 °F 90% 29.75 in 10.0 mi West 12.7 mph 20.7 mph N/A   Overcast
9:15 AM 50.9 °F 47.7 °F 89% 29.76 in 10.0 mi WNW 11.5 mph 19.6 mph N/A   Overcast
9:35 AM 48.7 °F 46.0 °F 90% 29.77 in 10.0 mi WNW 11.5 mph 19.6 mph N/A   Overcast
9:55 AM 47.8 °F 45.3 °F 91% 29.79 in 10.0 mi WNW 8.1 mph 20.7 mph N/A   Overcast
10:15 AM 48.4 °F 43.7 °F 84% 29.80 in 10.0 mi West 10.4 mph 19.6 mph N/A   Overcast
10:55 AM 50.4 °F 41.9 °F 73% 29.80 in 10.0 mi West 10.4 mph 19.6 mph N/A   Overcast
11:15 AM 52.2 °F 41.0 °F 66% 29.80 in 10.0 mi WSW 15.0 mph 29.9 mph N/A   Overcast
11:35 AM 52.3 °F 40.6 °F 64% 29.80 in 10.0 mi WSW 13.8 mph 24.2 mph N/A   Overcast
11:55 AM 52.9 °F 41.7 °F 66% 29.80 in 10.0 mi WNW 8.1 mph - N/A   Overcast
12:15 PM 53.6 °F 42.1 °F 65% 29.80 in 10.0 mi WNW 4.6 mph - N/A   Overcast
12:35 PM 54.1 °F 39.4 °F 57% 29.80 in 10.0 mi SW 12.7 mph 18.4 mph N/A   Overcast
12:55 PM 55.9 °F 39.7 °F 55% 29.80 in 10.0 mi WSW 12.7 mph 18.4 mph N/A   Overcast
1:15 PM 55.4 °F 39.2 °F 54% 29.80 in 10.0 mi West 5.8 mph 12.7 mph N/A   Overcast
1:35 PM 57.6 °F 38.5 °F 49% 29.79 in 10.0 mi WSW 6.9 mph - N/A   Overcast
1:55 PM 58.5 °F 37.6 °F 46% 29.80 in 10.0 mi WSW 8.1 mph 17.3 mph N/A   Overcast
2:15 PM 58.1 °F 36.9 °F 45% 29.79 in 10.0 mi West 15.0 mph 19.6 mph N/A   Overcast
2:35 PM 59.7 °F 37.4 °F 43% 29.79 in 10.0 mi WSW 12.7 mph 19.6 mph N/A   Mostly Cloudy
2:55 PM 59.0 °F 37.6 °F 45% 29.80 in 10.0 mi WNW 9.2 mph 18.4 mph N/A   Mostly Cloudy
3:15 PM 60.1 °F 38.3 °F 44% 29.79 in 10.0 mi West 13.8 mph 19.6 mph N/A   Scattered Clouds
3:35 PM 60.8 °F 38.1 °F 43% 29.79 in 10.0 mi SW 9.2 mph 18.4 mph N/A   Clear
3:55 PM 60.1 °F 36.7 °F 42% 29.79 in 10.0 mi West 12.7 mph 21.9 mph N/A   Clear
4:15 PM 60.6 °F 35.6 °F 39% 29.79 in 10.0 mi West 9.2 mph 20.7 mph N/A   Clear
4:35 PM 60.6 °F 35.2 °F 39% 29.79 in 10.0 mi West 11.5 mph 20.7 mph N/A   Clear
4:55 PM 60.6 °F 34.9 °F 38% 29.79 in 10.0 mi West 6.9 mph 17.3 mph N/A   Clear
5:35 PM 60.4 °F 33.8 °F 37% 29.81 in 10.0 mi WSW 12.7 mph 23.0 mph N/A   Clear
5:55 PM 60.3 °F 33.6 °F 37% 29.82 in 10.0 mi West 11.5 mph 19.6 mph N/A   Clear
6:15 PM 59.7 °F 32.5 °F 36% 29.82 in 10.0 mi WNW 11.5 mph 20.7 mph N/A   Clear
6:35 PM 59.2 °F 32.9 °F 37% 29.83 in 10.0 mi WNW 11.5 mph 19.6 mph N/A   Clear
6:55 PM 58.1 °F 32.9 °F 39% 29.84 in 10.0 mi WNW 15.0 mph 23.0 mph N/A   Scattered Clouds
7:15 PM 56.8 °F 32.9 °F 40% 29.84 in 10.0 mi WNW 11.5 mph 17.3 mph N/A   Scattered Clouds
7:35 PM 56.3 °F 33.3 °F 42% 29.85 in 10.0 mi West 6.9 mph - N/A   Mostly Cloudy
7:55 PM 55.8 °F 33.8 °F 44% 29.85 in 10.0 mi WNW 8.1 mph - N/A   Mostly Cloudy
8:15 PM 55.8 °F 33.8 °F 44% 29.86 in 10.0 mi West 9.2 mph - N/A   Overcast
8:35 PM 55.6 °F 34.0 °F 44% 29.87 in 10.0 mi West 4.6 mph - N/A   Overcast
8:55 PM 55.4 °F 34.0 °F 44% 29.87 in 10.0 mi WNW 4.6 mph - N/A   Overcast
9:15 PM 55.4 °F 34.2 °F 45% 29.88 in 10.0 mi WNW 3.5 mph - N/A   Overcast
9:35 PM 54.9 °F 34.3 °F 46% 29.89 in 10.0 mi West 4.6 mph - N/A   Overcast
9:55 PM 54.7 °F 34.9 °F 47% 29.90 in 10.0 mi Calm Calm - N/A   Overcast
10:15 PM 54.5 °F 34.7 °F 47% 29.90 in 10.0 mi WNW 5.8 mph - N/A   Overcast
10:35 PM 54.7 °F 34.7 °F 47% 29.90 in 10.0 mi West 6.9 mph 16.1 mph N/A   Overcast
10:55 PM 54.5 °F 34.9 °F 48% 29.91 in 10.0 mi NW 4.6 mph - N/A   Overcast
11:15 PM 53.6 °F 35.6 °F 51% 29.92 in 10.0 mi NW 4.6 mph - N/A   Overcast
11:35 PM 53.2 °F 35.8 °F 52% 29.92 in 10.0 mi Calm Calm - N/A   Overcast
11:55 PM 52.7 °F 36.0 °F 53% 29.92 in 10.0 mi NW 4.6 mph - N/A   Overcast